College Park, GA (30337)

8:07 AM EDT on July 03, 2015 (GMT -0400)
Princeton Lakes | | Change Station
CLOSE
Current Station
Personal Weather Station
Location: Atlanta, GA
Elevation: 925 ft
Nearby Weather Stations

Elev 925 ft 33.67 °N, 84.51 °W | Updated 3 minutes ago

Mostly Cloudy
Mostly Cloudy
75.7 °F
Feels Like 75 °F
N
1.1
Wind Variable Wind from East

Today
High -- | Low -- °F
--% Chance of Precip.
Yesterday
High -- | Low -- °F
Precip. -- in
6:31 AM 8:52 PM
Full, 97% visible
Pressure 29.95 in
Visibility 8.0 miles
Clouds Few 1400 ft
Scattered Clouds 6500 ft
Scattered Clouds 11000 ft
Mostly Cloudy 20000 ft
Heat Index 75 °F
Dew Point 73 °F
Humidity 90%
Rainfall 0.00 in
Snow Depth Not available.
UV 0 out of 12
Pollen 1.60 out of 12
Air Quality Not available.
Flu Activity Not available.
METAR KATL 031152Z 23011KT 8SM FEW014 SCT065 SCT110 BKN200 25/22 A2998 RMK AO2 SLP141 CB DSNT NW-NE 60002 70017 T02500217 10250 20239 53009

More Conditions Fewer Conditions

Pressure 29.95 in
Visibility 8.0 miles
Clouds Few 1400 ft
Scattered Clouds 6500 ft
Scattered Clouds 11000 ft
Mostly Cloudy 20000 ft
Heat Index 75 °F
Dew Point 73 °F
Humidity 90%
Rainfall 0.00 in
Snow Depth Not available.
UV 0 out of 12
Pollen 1.60 out of 12
Air Quality Not available.
Flu Activity Not available.
METAR KATL 031152Z 23011KT 8SM FEW014 SCT065 SCT110 BKN200 25/22 A2998 RMK AO2 SLP141 CB DSNT NW-NE 60002 70017 T02500217 10250 20239 53009

More Conditions Fewer Conditions

10-Day Weather Forecast

×

Almanac

Astronomy

Jul. 03, 2015 Rise Set
Actual Time
Civil Twilight
Nautical Twilight
Astronomical Twilight
Moon
Length of Visible Light
Length of Day
Tomorrow will be .
, % of the Moon is Illuminated

Today's Extremes

State Highs State Lows

Community

WunderPhotos

Upload Photos

1,834,656 photos uploaded!

WunderBlogs® & News

Nearby

Air Quality

  Air Quality AQ Index Pollutant
Not available.

Snow Depth

Station Depth Elevation

Earthquake Activity

City Distance Mag. Time & Date
Minimum magnitude displayed is 2.5.

Coastal Water Temperatures

Place Temperature

Stations

Nearby Weather Stations

Station Location Temp. Windchill Dew Point Humidity Wind Precip. Elev Updated Type